Time;durP1;ratioP1;P1;durP2;ratioP2;P2;SDS_P1;SDS_P2;PMS_P1;PMS_P2;Temp;Humidity;BMP_temperature;BMP_pressure;BME280_temperature;BME280_humidity;BME280_pressure;Samples;Min_cycle;Max_cycle;Signal;HPM_P1;HPM_P2
2023/07/30 00:01:29;;;;;;;3.75;2.10;;;21.40;72.30;;;;;;10363203;28;20686;-53
2023/07/30 00:06:30;;;;;;;4.63;2.92;;;21.40;72.20;;;;;;10363074;28;20030;-52
2023/07/30 00:11:30;;;;;;;5.28;2.40;;;21.40;72.10;;;;;;10363150;28;20433;-54
2023/07/30 00:16:31;;;;;;;4.32;3.05;;;21.40;72.10;;;;;;10366108;28;20030;-54
2023/07/30 00:21:31;;;;;;;4.40;2.30;;;21.40;72.10;;;;;;10370059;28;20084;-53
2023/07/30 00:26:32;;;;;;;4.78;2.47;;;21.40;72.10;;;;;;10369846;28;20478;-53
2023/07/30 00:31:33;;;;;;;4.57;2.15;;;21.40;72.00;;;;;;10369436;28;20026;-53
2023/07/30 00:36:33;;;;;;;3.72;2.30;;;21.40;72.10;;;;;;10369280;28;20504;-53
2023/07/30 00:41:34;;;;;;;2.90;2.08;;;21.40;72.20;;;;;;10369689;28;20092;-53
2023/07/30 00:46:35;;;;;;;3.65;2.92;;;21.30;72.20;;;;;;10369505;28;20034;-52
2023/07/30 00:51:36;;;;;;;3.72;2.03;;;21.40;72.20;;;;;;10367561;28;20066;-54
2023/07/30 00:56:37;;;;;;;5.20;2.50;;;21.30;72.10;;;;;;10368695;28;20038;-56
2023/07/30 01:01:42;;;;;;;4.93;2.65;;;21.30;72.00;;;;;;10368977;28;20022;-54
2023/07/30 01:06:43;;;;;;;5.32;2.22;;;21.30;72.00;;;;;;10367023;28;20061;-53
2023/07/30 01:11:44;;;;;;;3.42;2.00;;;21.30;71.80;;;;;;10367108;28;20025;-53
2023/07/30 01:16:45;;;;;;;3.95;2.08;;;21.30;71.70;;;;;;10340494;28;20031;-53
2023/07/30 01:21:46;;;;;;;4.10;2.13;;;21.30;71.70;;;;;;10326136;28;20029;-54
2023/07/30 01:27:02;;;;;;;3.58;2.47;;;21.30;71.70;;;;;;10326700;28;20089;-52
2023/07/30 01:32:07;;;;;;;3.58;2.10;;;21.30;71.90;;;;;;10311093;28;20478;-52
2023/07/30 01:37:12;;;;;;;3.75;2.33;;;21.30;72.50;;;;;;10325292;28;20042;-53
2023/07/30 01:42:13;;;;;;;4.63;2.63;;;21.30;72.60;;;;;;10325001;28;20049;-53
2023/07/30 01:47:14;;;;;;;3.13;1.90;;;21.30;71.70;;;;;;10324945;28;20014;-53
2023/07/30 01:52:15;;;;;;;3.88;2.17;;;21.30;71.70;;;;;;10340862;28;20030;-53
2023/07/30 01:57:16;;;;;;;4.70;2.10;;;21.30;71.80;;;;;;10326101;28;20093;-53
2023/07/30 02:02:16;;;;;;;5.88;2.42;;;21.30;71.70;;;;;;10325867;28;20197;-53
2023/07/30 02:07:17;;;;;;;5.63;2.53;;;21.30;71.70;;;;;;10326382;28;20034;-54
2023/07/30 02:12:17;;;;;;;4.00;2.10;;;21.30;71.70;;;;;;10336033;28;20567;-52
2023/07/30 02:17:18;;;;;;;3.42;2.58;;;21.30;71.70;;;;;;10356734;28;20087;-53
2023/07/30 02:22:19;;;;;;;3.22;2.20;;;21.30;71.70;;;;;;10365287;28;20097;-53
2023/07/30 02:27:19;;;;;;;3.53;2.03;;;21.20;71.50;;;;;;10365365;28;20041;-53
2023/07/30 02:32:20;;;;;;;4.15;2.00;;;21.20;71.40;;;;;;10365196;28;20121;-54
2023/07/30 02:37:21;;;;;;;4.07;1.80;;;21.30;71.40;;;;;;10365081;28;20478;-53
2023/07/30 02:42:21;;;;;;;3.60;2.20;;;21.20;71.40;;;;;;10362473;28;20046;-53
2023/07/30 02:47:22;;;;;;;3.15;1.90;;;21.20;71.40;;;;;;10364629;28;20032;-52
2023/07/30 02:52:23;;;;;;;5.55;2.63;;;21.20;71.40;;;;;;10363271;28;20105;-53
2023/07/30 02:57:23;;;;;;;4.25;2.53;;;21.20;71.50;;;;;;10364157;28;20112;-53
2023/07/30 03:02:24;;;;;;;3.55;2.15;;;21.20;71.60;;;;;;10364169;28;20531;-54
2023/07/30 03:07:25;;;;;;;3.10;2.10;;;21.20;71.70;;;;;;10364230;28;20461;-53
2023/07/30 03:12:26;;;;;;;5.50;2.67;;;21.20;71.70;;;;;;10332614;28;20027;-53
2023/07/30 03:17:26;;;;;;;4.47;2.00;;;21.20;71.70;;;;;;10355556;28;20686;-53
2023/07/30 03:22:27;;;;;;;3.88;2.05;;;21.20;71.70;;;;;;10363765;28;20041;-53
2023/07/30 03:27:28;;;;;;;3.10;2.70;;;21.20;71.70;;;;;;10363477;28;20042;-53
2023/07/30 03:32:28;;;;;;;8.32;3.00;;;21.20;71.70;;;;;;10363748;28;20672;-52
2023/07/30 03:37:29;;;;;;;4.68;2.85;;;21.10;71.60;;;;;;10339791;28;20118;-53
2023/07/30 03:42:30;;;;;;;4.88;2.30;;;21.20;71.70;;;;;;10322401;28;20042;-53
2023/07/30 03:47:31;;;;;;;4.45;2.40;;;21.20;71.70;;;;;;10319345;28;20056;-54
2023/07/30 03:52:31;;;;;;;5.80;3.13;;;21.10;71.60;;;;;;10325660;28;20097;-53
2023/07/30 03:57:32;;;;;;;4.38;1.98;;;21.20;71.60;;;;;;10328946;28;20034;-53
2023/07/30 04:02:33;;;;;;;4.38;2.55;;;21.10;71.60;;;;;;10330472;28;20088;-54
2023/07/30 04:07:33;;;;;;;4.68;2.38;;;21.10;71.50;;;;;;10335014;28;20535;-53
2023/07/30 04:12:34;;;;;;;4.38;2.47;;;21.10;71.60;;;;;;10338358;28;20054;-53
2023/07/30 04:17:37;;;;;;;3.67;2.00;;;21.10;71.60;;;;;;10363781;28;20500;-53
2023/07/30 04:22:38;;;;;;;3.45;2.60;;;21.10;71.60;;;;;;10369385;28;20548;-53
2023/07/30 04:27:39;;;;;;;4.47;2.38;;;21.10;71.60;;;;;;10360403;28;20032;-53
2023/07/30 04:32:39;;;;;;;4.22;2.33;;;21.10;71.60;;;;;;10328774;28;20021;-52
2023/07/30 04:37:40;;;;;;;4.53;2.63;;;21.10;71.70;;;;;;10344259;28;20470;-52
2023/07/30 04:42:40;;;;;;;5.63;3.75;;;21.10;71.60;;;;;;10365567;28;20627;-53
2023/07/30 04:47:41;;;;;;;4.55;2.38;;;21.10;71.60;;;;;;10358705;28;20069;-52
2023/07/30 04:52:42;;;;;;;4.35;2.50;;;21.10;71.60;;;;;;10365739;28;20072;-52
2023/07/30 04:57:42;;;;;;;5.47;2.83;;;21.10;71.60;;;;;;10353222;28;20031;-53
2023/07/30 05:02:43;;;;;;;5.13;2.95;;;21.10;71.60;;;;;;10345337;28;20105;-51
2023/07/30 05:07:44;;;;;;;5.85;2.97;;;21.10;72.90;;;;;;10352191;28;20607;-52
2023/07/30 05:12:44;;;;;;;7.03;3.25;;;21.20;72.00;;;;;;10347613;28;20116;-53
2023/07/30 05:17:45;;;;;;;8.43;3.88;;;21.20;71.70;;;;;;10352432;28;20113;-50
2023/07/30 05:22:46;;;;;;;6.18;3.53;;;21.30;72.30;;;;;;10331666;28;20443;-53
2023/07/30 05:27:47;;;;;;;12.00;3.50;;;21.30;72.50;;;;;;10325648;28;20034;-52
2023/07/30 05:32:47;;;;;;;9.40;4.22;;;21.50;72.50;;;;;;10326122;28;20105;-50
2023/07/30 05:37:48;;;;;;;8.77;3.60;;;21.50;72.20;;;;;;10356470;28;20137;-52
2023/07/30 05:42:49;;;;;;;12.55;5.10;;;21.50;72.20;;;;;;10347377;28;20045;-51
2023/07/30 05:47:49;;;;;;;9.27;3.70;;;21.50;72.20;;;;;;10328049;28;20023;-52
2023/07/30 05:52:50;;;;;;;15.90;3.95;;;21.50;72.30;;;;;;10353321;28;20432;-53
2023/07/30 05:57:53;;;;;;;9.52;3.83;;;21.40;72.20;;;;;;10325417;28;20030;-51
2023/07/30 06:02:53;;;;;;;10.23;4.85;;;21.40;72.20;;;;;;10329085;28;20107;-50
2023/07/30 06:07:54;;;;;;;10.35;4.95;;;21.30;72.10;;;;;;10360003;28;20098;-55
2023/07/30 06:12:55;;;;;;;15.75;5.60;;;21.30;72.10;;;;;;10334398;28;20026;-54
2023/07/30 06:17:55;;;;;;;21.35;6.03;;;21.30;72.20;;;;;;10358549;28;20208;-52
2023/07/30 06:22:56;;;;;;;16.42;5.80;;;21.30;72.20;;;;;;10362089;28;20156;-53
2023/07/30 06:27:58;;;;;;;17.83;4.70;;;21.30;72.20;;;;;;10361944;28;20022;-53
2023/07/30 06:32:59;;;;;;;24.10;6.43;;;21.30;72.30;;;;;;10363000;28;20014;-51
2023/07/30 06:37:59;;;;;;;15.68;5.20;;;21.30;72.20;;;;;;10348232;28;20038;-52
2023/07/30 06:43:00;;;;;;;18.83;5.40;;;21.30;72.30;;;;;;10322914;28;20057;-51
2023/07/30 06:48:01;;;;;;;18.27;6.38;;;21.40;72.40;;;;;;10325037;28;20488;-53
2023/07/30 06:53:02;;;;;;;17.58;6.25;;;21.30;72.40;;;;;;10359219;28;20424;-52
2023/07/30 06:58:02;;;;;;;16.05;6.22;;;21.40;72.50;;;;;;10357712;28;20442;-51
2023/07/30 07:03:03;;;;;;;18.55;5.72;;;21.40;72.80;;;;;;10354219;28;20342;-52
2023/07/30 07:08:04;;;;;;;21.63;6.75;;;21.50;74.00;;;;;;10360090;28;20485;-52
2023/07/30 07:13:05;;;;;;;23.05;5.60;;;21.40;73.10;;;;;;10325929;28;20600;-52
2023/07/30 07:18:05;;;;;;;18.95;6.88;;;21.40;72.90;;;;;;10359121;28;20030;-52
2023/07/30 07:23:06;;;;;;;21.08;6.00;;;21.40;73.00;;;;;;10363403;28;20080;-49
2023/07/30 07:28:07;;;;;;;20.25;7.00;;;21.40;73.10;;;;;;10368962;28;20029;-51
2023/07/30 07:33:11;;;;;;;30.80;7.72;;;21.40;73.10;;;;;;10368557;28;20415;-52
2023/07/30 07:38:12;;;;;;;13.77;5.57;;;21.40;73.10;;;;;;10352901;28;20124;-53
2023/07/30 07:43:12;;;;;;;21.70;6.07;;;21.40;73.20;;;;;;10369614;28;20119;-52
2023/07/30 07:48:13;;;;;;;21.05;7.35;;;21.40;73.30;;;;;;10367002;28;20094;-54
2023/07/30 07:53:14;;;;;;;18.73;6.80;;;21.40;73.30;;;;;;10349935;28;20466;-54
2023/07/30 07:58:14;;;;;;;17.70;6.13;;;21.50;73.60;;;;;;10330486;28;20046;-52
2023/07/30 08:03:15;;;;;;;12.10;6.32;;;21.40;73.40;;;;;;10328841;28;20022;-53
2023/07/30 08:08:16;;;;;;;10.60;6.05;;;21.40;73.30;;;;;;10337809;28;20117;-53
2023/07/30 08:13:16;;;;;;;11.02;5.50;;;21.40;73.40;;;;;;10330596;28;20022;-53
2023/07/30 08:18:17;;;;;;;16.50;5.78;;;21.30;73.20;;;;;;10368297;28;20112;-55
2023/07/30 08:23:18;;;;;;;11.52;5.85;;;21.30;73.00;;;;;;10368666;28;20101;-56
2023/07/30 08:28:18;;;;;;;14.75;7.20;;;21.30;72.90;;;;;;10368262;28;20037;-56
2023/07/30 08:33:19;;;;;;;10.43;4.78;;;21.30;73.00;;;;;;10352211;28;20587;-55
2023/07/30 08:38:20;;;;;;;17.75;5.93;;;21.30;72.80;;;;;;10356704;28;20316;-54
2023/07/30 08:43:20;;;;;;;20.55;6.18;;;21.40;73.20;;;;;;10347974;28;20493;-54
2023/07/30 08:48:21;;;;;;;14.30;6.47;;;21.40;72.80;;;;;;10367167;28;20018;-54
2023/07/30 08:53:26;;;;;;;22.63;8.13;;;21.40;73.00;;;;;;10341090;28;20061;-56
2023/07/30 08:58:27;;;;;;;17.63;7.13;;;21.40;72.90;;;;;;10362681;28;20064;-55
2023/07/30 09:03:31;;;;;;;19.67;6.57;;;21.40;72.90;;;;;;10367885;28;20018;-55
2023/07/30 09:08:32;;;;;;;20.02;7.45;;;21.40;72.80;;;;;;10367070;28;20426;-54
2023/07/30 09:13:41;;;;;;;17.90;6.30;;;21.40;73.10;;;;;;10360836;28;20026;-55
2023/07/30 09:18:44;;;;;;;24.45;9.82;;;21.40;73.10;;;;;;10364655;28;20165;-54
2023/07/30 09:23:46;;;;;;;31.83;8.30;;;21.60;74.20;;;;;;10365920;28;20021;-54
2023/07/30 09:28:47;;;;;;;26.05;7.28;;;21.70;74.30;;;;;;10364073;28;20026;-54
2023/07/30 09:33:48;;;;;;;20.70;7.75;;;21.80;74.10;;;;;;10365763;28;20714;-54
2023/07/30 09:38:49;;;;;;;31.17;8.05;;;21.80;74.30;;;;;;10366741;28;20026;-55
2023/07/30 09:43:58;;;;;;;69.00;12.13;;;21.70;73.60;;;;;;10364287;28;20033;-54
2023/07/30 09:49:00;;;;;;;67.20;12.45;;;21.70;73.70;;;;;;10360808;28;20053;-54
2023/07/30 09:54:02;;;;;;;50.70;9.52;;;21.70;73.80;;;;;;10326140;28;20022;-54
2023/07/30 09:59:08;;;;;;;54.17;12.52;;;21.70;74.00;;;;;;10324909;28;20041;-54
2023/07/30 10:04:10;;;;;;;64.13;11.82;;;21.70;73.70;;;;;;10325968;28;20073;-53
2023/07/30 10:09:12;;;;;;;63.08;11.30;;;21.70;73.60;;;;;;10354419;28;20024;-54
2023/07/30 10:14:15;;;;;;;56.80;12.52;;;21.60;73.70;;;;;;10324538;28;20436;-53
2023/07/30 10:19:16;;;;;;;47.55;11.35;;;21.60;73.70;;;;;;10342047;28;20038;-53
2023/07/30 10:24:17;;;;;;;36.95;10.98;;;21.60;73.60;;;;;;10340681;28;20042;-53
2023/07/30 10:29:20;;;;;;;58.33;12.93;;;21.60;73.50;;;;;;10323433;28;20022;-54
2023/07/30 10:34:40;;;;;;;46.75;10.38;;;21.70;73.60;;;;;;10335521;28;20058;-53
2023/07/30 10:39:41;;;;;;;43.15;11.32;;;21.60;73.50;;;;;;10346839;28;20034;-54
2023/07/30 10:44:45;;;;;;;50.90;11.18;;;21.60;74.20;;;;;;10328724;28;20035;-53
2023/07/30 10:49:48;;;;;;;44.03;12.05;;;21.60;73.30;;;;;;10362287;28;20018;-53
2023/07/30 10:54:48;;;;;;;42.70;10.23;;;21.70;73.20;;;;;;10361830;28;20041;-51
2023/07/30 10:59:49;;;;;;;34.65;8.98;;;21.70;73.20;;;;;;10359560;28;20373;-54
2023/07/30 11:04:51;;;;;;;31.73;7.00;;;22.00;73.40;;;;;;10360044;28;20022;-53
2023/07/30 11:10:02;;;;;;;29.00;8.32;;;22.10;73.00;;;;;;10361452;28;20354;-54
2023/07/30 11:15:04;;;;;;;29.15;7.95;;;22.10;72.80;;;;;;10358476;28;20030;-52
2023/07/30 11:20:05;;;;;;;36.15;8.45;;;22.10;72.60;;;;;;10336256;28;20022;-51
2023/07/30 11:25:17;;;;;;;31.20;7.57;;;22.20;72.50;;;;;;10323197;28;20097;-53
2023/07/30 11:30:19;;;;;;;38.33;7.72;;;22.20;72.60;;;;;;10322647;28;20018;-54
2023/07/30 11:35:20;;;;;;;36.72;7.90;;;22.30;72.00;;;;;;10341358;28;20469;-54
2023/07/30 11:40:21;;;;;;;29.58;7.43;;;22.20;72.20;;;;;;10362589;28;20053;-54
2023/07/30 11:45:23;;;;;;;50.45;9.45;;;22.00;72.10;;;;;;10362802;28;20018;-54
2023/07/30 11:50:24;;;;;;;79.15;10.95;;;22.00;72.20;;;;;;10364260;28;20057;-56
2023/07/30 11:55:38;;;;;;;31.55;7.75;;;21.90;72.10;;;;;;10363609;28;20030;-55
2023/07/30 12:00:41;;;;;;;45.38;9.73;;;22.00;71.90;;;;;;10360432;28;20018;-55
2023/07/30 12:05:41;;;;;;;35.10;8.88;;;22.10;71.50;;;;;;10356676;28;20084;-56
2023/07/30 12:10:52;;;;;;;43.25;7.57;;;22.10;71.70;;;;;;10358214;28;20054;-54
2023/07/30 12:15:54;;;;;;;21.40;5.72;;;22.20;71.20;;;;;;10367506;28;20511;-54
2023/07/30 12:20:55;;;;;;;17.13;4.93;;;22.20;70.30;;;;;;10367813;28;20584;-54
2023/07/30 12:25:55;;;;;;;23.33;4.65;;;22.20;70.10;;;;;;10363441;28;20026;-54
2023/07/30 12:30:56;;;;;;;20.85;4.72;;;22.30;70.30;;;;;;10342014;28;20101;-56
2023/07/30 12:35:57;;;;;;;19.17;4.07;;;22.20;70.40;;;;;;10327701;28;20144;-54
2023/07/30 12:40:57;;;;;;;15.10;4.15;;;22.10;70.50;;;;;;10338281;28;20117;-55
2023/07/30 12:45:58;;;;;;;21.90;5.43;;;22.10;70.10;;;;;;10366279;28;20489;-54
2023/07/30 12:50:59;;;;;;;18.80;5.30;;;22.10;70.10;;;;;;10327067;28;20032;-54
2023/07/30 12:55:59;;;;;;;13.10;3.78;;;22.00;70.30;;;;;;10330144;28;20134;-53
2023/07/30 13:01:00;;;;;;;17.35;4.50;;;22.10;70.50;;;;;;10367482;28;20053;-54
2023/07/30 13:06:01;;;;;;;8.07;3.70;;;22.00;70.30;;;;;;10367076;28;20116;-54
2023/07/30 13:11:01;;;;;;;12.18;4.72;;;22.00;70.10;;;;;;10347751;28;20018;-53
2023/07/30 13:16:02;;;;;;;12.02;3.08;;;22.00;70.20;;;;;;10347452;28;20105;-54
2023/07/30 13:21:03;;;;;;;12.52;2.80;;;22.00;70.30;;;;;;10367281;28;20050;-54
2023/07/30 13:26:04;;;;;;;10.00;3.00;;;21.90;70.30;;;;;;10365222;28;20022;-54
2023/07/30 13:31:04;;;;;;;10.30;3.63;;;21.90;70.30;;;;;;10365707;28;20563;-54
2023/07/30 13:36:06;;;;;;;7.70;2.75;;;21.90;70.10;;;;;;10353463;28;20485;-54
2023/07/30 13:41:06;;;;;;;12.30;2.90;;;21.90;70.00;;;;;;10338118;28;20342;-52
2023/07/30 13:46:07;;;;;;;8.57;2.30;;;21.90;70.10;;;;;;10365678;28;20017;-53
2023/07/30 13:51:08;;;;;;;9.23;2.42;;;21.90;70.10;;;;;;10365051;28;20052;-54
2023/07/30 13:56:08;;;;;;;9.93;3.03;;;21.90;70.30;;;;;;10365013;28;20424;-54
2023/07/30 14:01:09;;;;;;;5.55;2.35;;;21.80;70.10;;;;;;10364709;28;20021;-53
2023/07/30 14:06:10;;;;;;;8.48;2.97;;;21.80;70.20;;;;;;10363161;28;20014;-54
2023/07/30 14:11:11;;;;;;;9.80;2.95;;;21.80;70.20;;;;;;10343474;28;20030;-54
2023/07/30 14:16:13;;;;;;;6.75;2.60;;;21.80;70.00;;;;;;10346209;28;20112;-54
2023/07/30 14:21:13;;;;;;;6.75;2.00;;;21.80;69.90;;;;;;10363896;28;20445;-52
2023/07/30 14:26:14;;;;;;;6.80;2.28;;;21.80;69.80;;;;;;10363749;28;20022;-53
2023/07/30 14:31:15;;;;;;;6.00;2.63;;;21.80;69.90;;;;;;10363903;28;20022;-54
2023/07/30 14:36:15;;;;;;;7.38;1.83;;;21.80;69.60;;;;;;10361308;28;20556;-54
2023/07/30 14:41:16;;;;;;;3.83;1.67;;;21.80;69.40;;;;;;10363716;28;20080;-54
2023/07/30 14:46:17;;;;;;;4.07;1.55;;;21.80;69.40;;;;;;10361648;28;20032;-53
2023/07/30 14:51:18;;;;;;;4.97;1.73;;;21.80;69.10;;;;;;10360399;28;20014;-53
2023/07/30 14:56:19;;;;;;;4.75;1.80;;;21.80;69.10;;;;;;10362807;28;20045;-54
2023/07/30 15:01:22;;;;;;;9.27;2.75;;;21.70;68.90;;;;;;10361839;28;20021;-55
2023/07/30 15:06:27;;;;;;;7.75;2.13;;;21.80;69.00;;;;;;10355581;28;20051;-55
2023/07/30 15:11:27;;;;;;;7.47;1.75;;;21.80;68.40;;;;;;10356347;28;20048;-55
2023/07/30 15:16:28;;;;;;;3.15;1.40;;;21.70;68.30;;;;;;10360763;28;20051;-55
2023/07/30 15:21:32;;;;;;;4.82;1.55;;;21.70;67.90;;;;;;10358459;28;20026;-56
2023/07/30 15:26:33;;;;;;;5.28;1.88;;;21.70;67.80;;;;;;10357803;28;20029;-56
2023/07/30 15:31:33;;;;;;;4.00;1.17;;;21.70;67.70;;;;;;10360877;28;20611;-55
2023/07/30 15:36:35;;;;;;;5.32;1.55;;;21.70;67.60;;;;;;10343194;28;20481;-53
2023/07/30 15:41:36;;;;;;;4.88;1.83;;;21.70;66.80;;;;;;10359738;28;20046;-55
2023/07/30 15:46:37;;;;;;;3.63;1.27;;;21.80;67.10;;;;;;10364061;28;20030;-55
2023/07/30 15:51:38;;;;;;;6.15;1.65;;;21.80;67.10;;;;;;10371505;28;20105;-53
2023/07/30 15:56:39;;;;;;;6.05;2.30;;;21.80;66.90;;;;;;10355143;28;20088;-55
2023/07/30 16:01:40;;;;;;;10.88;3.13;;;21.90;66.40;;;;;;10359489;28;20006;-54
2023/07/30 16:06:40;;;;;;;5.70;1.92;;;22.20;67.70;;;;;;10354836;28;20054;-57
2023/07/30 16:11:41;;;;;;;10.48;3.10;;;22.20;65.10;;;;;;10370516;28;20101;-55
2023/07/30 16:16:44;;;;;;;8.80;3.40;;;22.30;70.60;;;;;;10368584;28;20037;-56
2023/07/30 16:21:49;;;;;;;15.65;3.42;;;22.50;68.20;;;;;;10370819;28;20044;-53
2023/07/30 16:26:49;;;;;;;11.65;2.70;;;22.90;67.90;;;;;;10370667;28;20041;-55
2023/07/30 16:31:50;;;;;;;10.98;2.50;;;22.80;67.40;;;;;;10370380;28;20105;-55
2023/07/30 16:36:51;;;;;;;9.65;2.25;;;22.70;67.20;;;;;;10368872;28;20400;-55
2023/07/30 16:41:52;;;;;;;23.35;3.58;;;22.60;67.40;;;;;;10369902;28;20088;-52
2023/07/30 16:46:52;;;;;;;15.82;4.28;;;22.60;67.60;;;;;;10368473;28;20038;-54
2023/07/30 16:51:53;;;;;;;11.40;3.00;;;22.50;68.10;;;;;;10365982;28;20683;-54
2023/07/30 16:56:54;;;;;;;8.43;2.72;;;22.40;68.10;;;;;;10368016;28;20030;-55
2023/07/30 17:01:54;;;;;;;11.07;3.08;;;22.30;68.10;;;;;;10368897;28;20104;-53
2023/07/30 17:06:55;;;;;;;15.50;3.67;;;22.20;68.30;;;;;;10367741;28;20018;-54
2023/07/30 17:11:55;;;;;;;9.27;2.67;;;22.20;68.60;;;;;;10362269;28;20513;-56
2023/07/30 17:16:56;;;;;;;9.80;2.42;;;22.10;68.10;;;;;;10355104;28;20109;-55
2023/07/30 17:21:57;;;;;;;20.27;3.38;;;22.10;68.00;;;;;;10359445;28;20018;-54
2023/07/30 17:26:57;;;;;;;13.60;3.95;;;22.00;68.20;;;;;;10364580;28;20593;-55
2023/07/30 17:31:59;;;;;;;7.40;2.70;;;22.00;68.30;;;;;;10310148;28;20382;-55
2023/07/30 17:37:00;;;;;;;8.93;3.33;;;22.00;68.30;;;;;;10337156;28;20038;-53
2023/07/30 17:42:00;;;;;;;13.35;3.63;;;22.10;68.40;;;;;;10324741;28;20134;-53
2023/07/30 17:47:01;;;;;;;9.20;2.60;;;22.10;68.50;;;;;;10355505;28;20021;-55
2023/07/30 17:52:02;;;;;;;14.50;3.83;;;22.10;68.50;;;;;;10357312;28;20436;-54
2023/07/30 17:57:03;;;;;;;10.85;3.40;;;22.10;68.70;;;;;;10374716;28;20088;-55
2023/07/30 18:02:04;;;;;;;15.20;3.00;;;22.10;68.80;;;;;;10358302;28;20537;-54
2023/07/30 18:07:05;;;;;;;10.65;3.47;;;22.10;68.90;;;;;;10361134;28;20029;-54
2023/07/30 18:12:06;;;;;;;13.50;3.30;;;22.10;69.00;;;;;;10361070;28;20131;-53
2023/07/30 18:17:07;;;;;;;11.73;3.33;;;22.10;68.90;;;;;;10361091;28;20030;-52
2023/07/30 18:22:07;;;;;;;10.65;2.53;;;22.10;69.10;;;;;;10353177;28;20018;-55
2023/07/30 18:27:08;;;;;;;10.18;2.85;;;22.10;68.90;;;;;;10352352;28;20101;-54
2023/07/30 18:32:09;;;;;;;6.40;3.00;;;22.10;69.00;;;;;;10360322;28;20413;-53
2023/07/30 18:37:10;;;;;;;11.35;3.45;;;22.10;69.30;;;;;;10358982;28;20461;-51
2023/07/30 18:42:10;;;;;;;8.68;2.55;;;22.10;69.40;;;;;;10358512;28;20038;-53
2023/07/30 18:47:11;;;;;;;6.93;2.10;;;22.10;69.40;;;;;;10357533;28;20025;-52
2023/07/30 18:52:12;;;;;;;8.18;2.42;;;22.10;69.60;;;;;;10357259;28;20628;-54
2023/07/30 18:57:13;;;;;;;7.18;2.58;;;22.10;69.60;;;;;;10358039;28;20112;-52
2023/07/30 19:02:14;;;;;;;7.47;2.47;;;22.10;69.80;;;;;;10361035;28;20018;-53
2023/07/30 19:07:15;;;;;;;7.43;2.72;;;22.00;69.80;;;;;;10357353;28;20056;-55
2023/07/30 19:12:15;;;;;;;8.02;2.70;;;22.10;69.80;;;;;;10344719;28;20137;-54
2023/07/30 19:17:21;;;;;;;13.50;3.20;;;22.00;69.90;;;;;;10361097;28;20060;-53
2023/07/30 19:22:22;;;;;;;6.13;2.25;;;22.00;70.00;;;;;;10357409;28;20033;-53
2023/07/30 19:27:23;;;;;;;4.75;2.10;;;22.00;70.10;;;;;;10359171;28;20010;-55
2023/07/30 19:32:24;;;;;;;5.70;3.03;;;21.90;70.20;;;;;;10360898;28;20022;-55
2023/07/30 19:37:25;;;;;;;4.53;1.65;;;21.90;70.20;;;;;;10361445;28;20350;-55
2023/07/30 19:42:25;;;;;;;3.83;2.15;;;21.80;70.30;;;;;;10360819;28;20049;-54
2023/07/30 19:47:27;;;;;;;5.97;1.98;;;21.80;70.40;;;;;;10357980;28;20588;-54
2023/07/30 19:52:30;;;;;;;7.03;2.22;;;21.70;70.40;;;;;;10351926;28;20033;-55
2023/07/30 19:57:32;;;;;;;4.60;1.88;;;21.70;70.40;;;;;;10320407;28;20085;-55
2023/07/30 20:02:33;;;;;;;3.90;2.42;;;21.70;70.40;;;;;;10321626;28;20030;-54
2023/07/30 20:07:33;;;;;;;5.22;1.92;;;21.70;70.50;;;;;;10327272;28;20139;-54
2023/07/30 20:12:34;;;;;;;3.90;2.15;;;21.70;70.60;;;;;;10330899;28;20478;-53
2023/07/30 20:17:35;;;;;;;8.52;2.25;;;21.60;70.50;;;;;;10357018;28;20504;-55
2023/07/30 20:22:35;;;;;;;5.70;3.00;;;21.60;70.60;;;;;;10362865;28;20060;-54
2023/07/30 20:27:36;;;;;;;5.93;2.33;;;21.60;70.60;;;;;;10363293;28;20097;-55
2023/07/30 20:32:38;;;;;;;5.85;2.80;;;21.60;70.70;;;;;;10363432;28;20096;-55
2023/07/30 20:37:39;;;;;;;4.88;1.80;;;21.60;70.60;;;;;;10369373;28;20030;-54
2023/07/30 20:42:40;;;;;;;2.50;1.58;;;21.60;70.70;;;;;;10369822;28;20038;-55
2023/07/30 20:47:40;;;;;;;3.33;1.70;;;21.60;70.70;;;;;;10369687;28;20226;-54
2023/07/30 20:52:46;;;;;;;3.20;1.60;;;21.50;70.70;;;;;;10369639;28;20120;-54
2023/07/30 20:57:46;;;;;;;3.20;1.70;;;21.60;70.70;;;;;;10369297;28;20038;-54
2023/07/30 21:02:47;;;;;;;4.45;2.00;;;21.50;70.70;;;;;;10369022;28;20017;-53
2023/07/30 21:07:48;;;;;;;4.93;2.15;;;21.50;70.70;;;;;;10369004;28;20116;-54
2023/07/30 21:12:48;;;;;;;5.00;1.77;;;21.50;70.70;;;;;;10335243;28;20030;-54
2023/07/30 21:17:49;;;;;;;7.10;1.98;;;21.50;70.70;;;;;;10363806;28;20048;-55
2023/07/30 21:22:50;;;;;;;4.15;1.77;;;21.50;70.70;;;;;;10368725;28;20101;-55
2023/07/30 21:27:50;;;;;;;5.32;1.30;;;21.50;70.70;;;;;;10368081;28;20549;-55
2023/07/30 21:32:51;;;;;;;9.75;1.90;;;21.50;70.70;;;;;;10367957;28;20114;-54
2023/07/30 21:37:52;;;;;;;3.83;1.52;;;21.50;70.70;;;;;;10367745;28;20121;-55
2023/07/30 21:42:52;;;;;;;4.05;1.73;;;21.50;70.60;;;;;;10366606;28;20133;-54
2023/07/30 21:47:53;;;;;;;3.40;1.70;;;21.40;70.60;;;;;;10351199;28;20029;-55
2023/07/30 21:52:54;;;;;;;2.83;1.65;;;21.40;70.60;;;;;;10326706;28;20022;-54
2023/07/30 21:57:54;;;;;;;3.70;1.23;;;21.40;70.60;;;;;;10326341;28;20114;-55
2023/07/30 22:02:59;;;;;;;2.35;1.40;;;21.40;70.60;;;;;;10326077;28;20106;-55
2023/07/30 22:07:59;;;;;;;3.80;1.45;;;21.40;70.60;;;;;;10333903;28;20025;-54
2023/07/30 22:13:00;;;;;;;3.40;1.45;;;21.40;71.10;;;;;;10330909;28;20022;-55
2023/07/30 22:18:01;;;;;;;3.35;2.13;;;21.40;70.40;;;;;;10377596;28;20022;-54
2023/07/30 22:23:02;;;;;;;2.60;1.38;;;21.40;70.40;;;;;;10366059;28;20022;-54
2023/07/30 22:28:03;;;;;;;3.38;2.08;;;21.40;70.40;;;;;;10339740;28;20026;-55
2023/07/30 22:33:04;;;;;;;2.95;1.63;;;21.40;70.30;;;;;;10325066;28;20026;-54
2023/07/30 22:38:04;;;;;;;4.78;2.88;;;21.40;70.40;;;;;;10324795;28;20030;-55
2023/07/30 22:43:05;;;;;;;3.38;1.65;;;21.40;70.30;;;;;;10324769;28;20042;-54
2023/07/30 22:48:05;;;;;;;3.22;1.80;;;21.40;70.40;;;;;;10324721;28;20036;-54
2023/07/30 22:53:07;;;;;;;3.35;1.40;;;21.30;70.30;;;;;;10357176;28;20021;-55
2023/07/30 22:58:08;;;;;;;3.55;1.80;;;21.30;70.30;;;;;;10364842;28;20543;-53
2023/07/30 23:03:10;;;;;;;2.78;1.33;;;21.30;70.20;;;;;;10364227;28;20093;-55
2023/07/30 23:08:11;;;;;;;2.47;1.30;;;21.30;70.30;;;;;;10354741;28;20097;-54
2023/07/30 23:13:12;;;;;;;3.05;1.45;;;21.30;70.20;;;;;;10323739;28;20105;-55
2023/07/30 23:18:12;;;;;;;2.45;1.15;;;21.30;70.30;;;;;;10360669;28;20128;-54
2023/07/30 23:23:13;;;;;;;2.30;1.25;;;21.30;70.20;;;;;;10364538;28;20026;-55
2023/07/30 23:28:13;;;;;;;1.98;1.40;;;21.30;70.20;;;;;;10363943;28;20064;-55
2023/07/30 23:33:15;;;;;;;1.88;1.20;;;21.30;70.20;;;;;;10362816;28;20054;-55
2023/07/30 23:38:16;;;;;;;1.77;0.95;;;21.30;70.20;;;;;;10362335;28;20030;-55
2023/07/30 23:43:16;;;;;;;2.08;1.20;;;21.30;70.30;;;;;;10363608;28;20045;-53
2023/07/30 23:48:17;;;;;;;1.60;0.90;;;21.30;70.30;;;;;;10363824;28;20112;-53
2023/07/30 23:53:18;;;;;;;3.15;1.30;;;21.30;70.30;;;;;;10363267;28;20097;-53
2023/07/30 23:58:18;;;;;;;2.05;1.08;;;21.30;70.30;;;;;;10362789;28;20045;-54
